createdAt,value
2018-07-29T08:57:23.506Z,8.67
2018-07-29T08:59:52.045Z,8.73
2018-07-29T09:02:20.567Z,8.13
2018-07-29T09:04:49.210Z,8.20
2018-07-29T09:07:17.900Z,8.63
2018-07-29T09:09:56.349Z,8.23
2018-07-29T09:12:24.926Z,8.83
2018-07-29T09:14:59.248Z,8.80
2018-07-29T09:17:27.805Z,8.90
2018-07-29T09:19:57.396Z,7.90
2018-07-29T09:22:26.091Z,7.80
2018-07-29T09:24:56.684Z,8.30
2018-07-29T09:27:25.305Z,8.73
2018-07-29T09:29:53.913Z,8.70
2018-07-29T09:32:22.489Z,8.90
2018-07-29T09:34:50.988Z,8.10
2018-07-29T09:37:19.524Z,8.33
2018-07-29T09:39:48.232Z,10.23
2018-07-29T09:42:16.763Z,7.97
2018-07-29T09:44:45.303Z,8.87
2018-07-29T09:47:13.984Z,9.47
2018-07-29T09:49:43.873Z,8.90
2018-07-29T09:52:22.616Z,8.77
2018-07-29T09:54:52.331Z,9.07
2018-07-29T09:57:26.356Z,8.03
2018-07-29T09:59:54.909Z,7.90
2018-07-29T10:02:23.412Z,9.43
2018-07-29T10:04:51.927Z,7.60
2018-07-29T10:07:20.715Z,7.83
2018-07-29T10:09:49.348Z,9.07
2018-07-29T10:12:18.077Z,7.43
2018-07-29T10:14:46.681Z,8.07
2018-07-29T10:17:15.260Z,8.57
2018-07-29T10:19:49.816Z,8.10
2018-07-29T10:22:18.593Z,8.17
2018-07-29T10:24:47.314Z,8.23
2018-07-29T10:27:15.969Z,8.20
2018-07-29T10:29:45.851Z,10.20
2018-07-29T10:32:16.754Z,7.57
2018-07-29T10:34:45.477Z,7.17
2018-07-29T10:37:14.060Z,8.13
2018-07-29T10:39:50.460Z,8.20
2018-07-29T10:42:18.953Z,8.00
2018-07-29T10:44:47.545Z,7.70
2018-07-29T10:47:18.179Z,8.50
2018-07-29T10:49:46.767Z,8.60
2018-07-29T10:52:15.292Z,7.60
2018-07-29T10:54:45.984Z,8.33
2018-07-29T10:57:14.729Z,8.53
2018-07-29T10:59:43.366Z,7.53
2018-07-29T11:02:12.101Z,7.20
2018-07-29T11:04:40.666Z,6.93
2018-07-29T11:07:19.770Z,7.70
2018-07-29T11:09:48.618Z,8.10
2018-07-29T11:12:17.121Z,6.50
2018-07-29T11:14:47.790Z,7.23
2018-07-29T11:17:16.290Z,6.83
2018-07-29T11:19:44.857Z,9.03
2018-07-29T11:22:13.640Z,7.40
2018-07-29T11:24:42.733Z,7.27
2018-07-29T11:27:11.462Z,6.97
2018-07-29T11:29:39.673Z,7.50
2018-07-29T11:32:08.284Z,6.60
2018-07-29T11:34:37.328Z,7.30
2018-07-29T11:37:06.055Z,7.03
2018-07-29T11:39:38.718Z,6.50
2018-07-29T11:42:07.905Z,7.50
2018-07-29T11:44:36.600Z,6.73
2018-07-29T11:47:06.515Z,6.90
2018-07-29T11:49:40.647Z,8.30
2018-07-29T11:52:11.568Z,6.90
2018-07-29T11:54:40.510Z,6.57
2018-07-29T11:57:09.151Z,7.70
2018-07-29T11:59:37.690Z,6.87
2018-07-29T12:02:06.310Z,6.77
2018-07-29T12:04:34.805Z,6.63
2018-07-29T12:07:03.343Z,6.10
2018-07-29T12:09:31.931Z,5.47
2018-07-29T12:12:00.388Z,6.53
2018-07-29T12:14:28.943Z,6.67
2018-07-29T12:16:57.523Z,6.20
2018-07-29T12:19:26.095Z,6.63
2018-07-29T12:21:54.593Z,6.03
2018-07-29T12:24:23.142Z,6.67
2018-07-29T12:26:51.681Z,6.20
2018-07-29T12:29:20.317Z,5.73
2018-07-29T12:34:48.540Z,6.50
2018-07-29T12:37:17.389Z,5.80
2018-07-29T12:39:45.872Z,5.80
2018-07-29T12:42:14.357Z,6.03
2018-07-29T12:44:42.919Z,5.60
2018-07-29T12:47:11.498Z,6.77
2018-07-29T12:49:40.124Z,5.83
2018-07-29T12:52:08.617Z,5.90
2018-07-29T12:54:37.467Z,5.87
2018-07-29T12:57:06.376Z,6.40
2018-07-29T12:59:34.836Z,6.80
2018-07-29T13:02:03.399Z,5.50
2018-07-29T13:04:33.025Z,6.10
2018-07-29T13:07:01.596Z,5.77
2018-07-29T13:09:30.233Z,6.10
2018-07-29T13:11:58.743Z,5.87
2018-07-29T13:14:27.238Z,5.50
2018-07-29T13:16:55.783Z,5.77
2018-07-29T13:19:24.293Z,6.20
2018-07-29T13:21:52.846Z,5.60
2018-07-29T13:24:21.461Z,5.30
2018-07-29T13:26:49.986Z,5.43
2018-07-29T13:29:18.422Z,5.90
2018-07-29T13:31:47.021Z,5.37
2018-07-29T13:34:15.694Z,5.97
2018-07-29T13:36:44.308Z,6.43
2018-07-29T13:39:12.916Z,6.00
2018-07-29T13:41:41.451Z,6.00
2018-07-29T13:44:10.062Z,5.20
2018-07-29T13:46:38.615Z,5.37
2018-07-29T13:49:07.173Z,5.97
2018-07-29T13:51:35.785Z,5.90
2018-07-29T13:54:04.402Z,5.70
2018-07-29T13:56:32.932Z,5.80
2018-07-29T13:59:01.516Z,5.70
2018-07-29T14:01:30.073Z,6.57
2018-07-29T14:03:58.625Z,5.87
2018-07-29T14:06:37.574Z,5.40
2018-07-29T14:09:08.346Z,5.73
2018-07-29T14:11:36.866Z,5.73
2018-07-29T14:14:05.472Z,5.97
2018-07-29T14:16:34.035Z,7.90
2018-07-29T14:19:02.561Z,5.97
2018-07-29T14:21:37.909Z,5.37
2018-07-29T14:24:06.522Z,5.50
2018-07-29T14:26:35.055Z,5.57
2018-07-29T14:29:03.599Z,5.10
2018-07-29T14:31:32.109Z,5.60
2018-07-29T14:34:00.636Z,5.63
2018-07-29T14:36:29.155Z,6.37
2018-07-29T14:38:57.319Z,5.43
2018-07-29T14:41:26.138Z,5.33
2018-07-29T14:43:54.688Z,5.17
2018-07-29T14:46:23.220Z,5.30
2018-07-29T14:48:51.841Z,5.90
2018-07-29T14:51:20.466Z,5.13
2018-07-29T14:53:48.623Z,6.90
2018-07-29T14:56:16.844Z,5.43
2018-07-29T14:58:45.440Z,5.67
2018-07-29T15:01:13.983Z,5.20
2018-07-29T15:03:42.476Z,5.90
2018-07-29T15:06:11.024Z,6.70
2018-07-29T15:08:39.502Z,5.80
2018-07-29T15:11:08.095Z,5.60
2018-07-29T15:13:36.698Z,5.20
2018-07-29T15:16:05.339Z,6.90
2018-07-29T15:18:33.860Z,6.20
2018-07-29T15:21:02.505Z,5.80
2018-07-29T15:23:31.089Z,6.23
2018-07-29T15:25:59.591Z,5.37
2018-07-29T15:28:28.124Z,6.60
2018-07-29T15:30:56.726Z,5.37
2018-07-29T15:33:25.313Z,5.27
2018-07-29T15:35:53.905Z,6.27
2018-07-29T15:38:22.487Z,5.00
2018-07-29T15:40:53.125Z,5.47
2018-07-29T15:43:21.609Z,5.77
2018-07-29T15:45:50.170Z,5.50
2018-07-29T15:48:18.903Z,5.63
2018-07-29T15:50:53.884Z,5.37
2018-07-29T15:53:22.530Z,5.30
2018-07-29T15:55:51.296Z,5.50
2018-07-29T15:58:19.834Z,5.63
2018-07-29T16:00:48.360Z,5.20
2018-07-29T16:03:16.887Z,5.30
2018-07-29T16:05:45.469Z,5.43
2018-07-29T16:08:13.992Z,5.80
2018-07-29T16:10:42.557Z,7.97
2018-07-29T16:13:11.124Z,4.90
2018-07-29T16:15:39.684Z,5.00
2018-07-29T16:18:08.286Z,5.50
2018-07-29T16:20:36.784Z,5.70
2018-07-29T16:23:05.545Z,5.53
2018-07-29T16:25:34.115Z,4.93
2018-07-29T16:28:02.715Z,5.50
2018-07-29T16:30:31.530Z,6.03
2018-07-29T16:33:00.107Z,4.90
2018-07-29T16:35:36.608Z,4.87
2018-07-29T16:38:05.135Z,5.37
2018-07-29T16:40:33.685Z,5.20
2018-07-29T16:43:02.398Z,5.57
2018-07-29T16:45:30.955Z,5.07
2018-07-29T16:47:59.554Z,4.63
2018-07-29T16:50:28.164Z,4.87
2018-07-29T16:52:56.695Z,5.50
2018-07-29T16:55:25.324Z,5.63
2018-07-29T16:57:53.854Z,4.43
2018-07-29T17:00:22.401Z,4.73
2018-07-29T17:02:51.126Z,5.83
2018-07-29T17:05:19.720Z,4.80
2018-07-29T17:07:48.295Z,4.57
2018-07-29T17:10:17.148Z,5.03
2018-07-29T17:12:45.885Z,4.63
2018-07-29T17:15:14.420Z,5.07
2018-07-29T17:17:43.990Z,4.90
2018-07-29T17:20:12.539Z,4.70
2018-07-29T17:22:41.089Z,5.07
2018-07-29T17:25:09.658Z,5.00
2018-07-29T17:27:38.341Z,4.07
2018-07-29T17:30:07.747Z,5.17
2018-07-29T17:32:36.967Z,5.40
2018-07-29T17:35:05.621Z,5.07
2018-07-29T17:37:34.194Z,5.23
2018-07-29T17:40:03.091Z,4.70
2018-07-29T17:42:31.636Z,5.03
2018-07-29T17:45:00.195Z,5.27
2018-07-29T17:47:28.660Z,4.80
2018-07-29T17:49:57.285Z,5.37
2018-07-29T17:52:25.799Z,4.90
2018-07-29T17:54:54.032Z,5.07
2018-07-29T17:57:22.624Z,6.10
2018-07-29T17:59:51.133Z,4.70
2018-07-29T18:02:19.601Z,5.77
2018-07-29T18:04:48.200Z,4.80
2018-07-29T18:07:16.653Z,5.23
2018-07-29T18:09:45.301Z,5.70
2018-07-29T18:12:13.862Z,5.20
2018-07-29T18:14:42.386Z,5.37
2018-07-29T18:17:12.073Z,5.10
2018-07-29T18:19:40.570Z,5.13
2018-07-29T18:22:09.150Z,5.17
2018-07-29T18:24:37.835Z,5.97
2018-07-29T18:27:06.357Z,5.07
2018-07-29T18:29:34.928Z,5.43
2018-07-29T18:32:03.479Z,5.13
2018-07-29T18:34:33.120Z,6.07
2018-07-29T18:37:01.625Z,5.90
2018-07-29T18:39:30.230Z,4.77
2018-07-29T18:41:58.675Z,5.63
2018-07-29T18:44:27.230Z,5.37
2018-07-29T18:46:55.993Z,4.93
2018-07-29T18:49:25.155Z,5.50
2018-07-29T18:51:53.899Z,4.90
2018-07-29T18:54:22.757Z,5.63
2018-07-29T18:56:51.329Z,5.60
2018-07-29T18:59:19.878Z,5.20
2018-07-29T19:01:49.604Z,4.97
2018-07-29T19:04:17.797Z,5.50
2018-07-29T19:06:45.985Z,5.63
2018-07-29T19:09:14.546Z,6.97
2018-07-29T19:11:43.195Z,6.23
2018-07-29T19:14:11.676Z,7.23
2018-07-29T19:16:40.360Z,7.70
2018-07-29T19:19:08.931Z,12.60
2018-07-29T19:21:38.533Z,7.40
2018-07-29T19:24:07.426Z,6.97
2018-07-29T19:26:36.081Z,7.77
2018-07-29T19:29:04.605Z,7.33
2018-07-29T19:31:33.176Z,7.40
2018-07-29T19:34:01.727Z,6.77
2018-07-29T19:36:31.289Z,5.80
2018-07-29T19:38:59.926Z,5.63
2018-07-29T19:41:28.459Z,7.57
2018-07-29T19:43:56.990Z,5.83
2018-07-29T19:46:29.526Z,6.07
2018-07-29T19:48:58.084Z,6.00
2018-07-29T19:51:26.510Z,6.33
2018-07-29T19:53:55.068Z,6.47
2018-07-29T19:56:23.666Z,6.77
2018-07-29T19:58:51.891Z,6.27
2018-07-29T20:01:20.472Z,7.73
2018-07-29T20:03:49.982Z,6.77
2018-07-29T20:06:18.566Z,6.57
2018-07-29T20:08:47.064Z,7.27
2018-07-29T20:11:15.588Z,6.40
2018-07-29T20:13:44.117Z,7.00
2018-07-29T20:16:13.816Z,6.13
2018-07-29T20:18:42.394Z,6.23
2018-07-29T20:21:11.184Z,7.10
2018-07-29T20:23:39.927Z,7.70
2018-07-29T20:26:08.677Z,6.80
2018-07-29T20:28:37.445Z,6.03
2018-07-29T20:31:10.835Z,7.57
2018-07-29T20:33:39.500Z,6.60
2018-07-29T20:36:08.273Z,7.03
2018-07-29T20:38:36.991Z,6.67
2018-07-29T20:41:05.849Z,6.63
2018-07-29T20:43:34.465Z,6.83
2018-07-29T20:46:03.701Z,7.20
2018-07-29T20:48:32.342Z,7.40
2018-07-29T20:51:01.090Z,5.70
2018-07-29T20:53:29.652Z,6.50
2018-07-29T20:55:58.268Z,6.33
2018-07-29T20:58:26.916Z,8.23
2018-07-29T21:00:56.723Z,6.53
2018-07-29T21:03:25.256Z,8.67
2018-07-29T21:05:54.357Z,8.10
2018-07-29T21:08:22.964Z,9.20
2018-07-29T21:10:51.652Z,8.00
2018-07-29T21:13:20.296Z,7.30
2018-07-29T21:15:48.957Z,6.90
2018-07-29T21:18:21.702Z,7.53
2018-07-29T21:20:50.394Z,6.70
2018-07-29T21:23:19.005Z,6.70
2018-07-29T21:25:47.758Z,7.67
2018-07-29T21:28:16.417Z,7.07
2018-07-29T21:30:44.956Z,7.30
2018-07-29T21:33:13.461Z,7.87
2018-07-29T21:35:42.074Z,8.30
2018-07-29T21:38:10.616Z,11.13
2018-07-29T21:40:39.270Z,6.70
2018-07-29T21:43:07.919Z,9.30
2018-07-29T21:45:36.408Z,9.70
2018-07-29T21:48:04.832Z,8.03
2018-07-29T21:50:33.546Z,10.10
2018-07-29T21:53:02.148Z,8.30
2018-07-29T21:55:30.712Z,7.27
2018-07-29T21:57:59.288Z,6.80
2018-07-29T22:00:27.836Z,7.80
2018-07-29T22:02:56.380Z,9.70
2018-07-29T22:05:30.429Z,7.77
2018-07-29T22:07:59.057Z,8.60
2018-07-29T22:10:27.644Z,7.27
2018-07-29T22:12:56.178Z,7.70
2018-07-29T22:15:24.719Z,7.73
2018-07-29T22:17:53.294Z,8.90
2018-07-29T22:20:21.804Z,7.47
2018-07-29T22:22:50.285Z,7.80
2018-07-29T22:25:21.446Z,10.43
2018-07-29T22:27:49.999Z,7.30
2018-07-29T22:30:23.751Z,9.93
2018-07-29T22:32:52.248Z,7.77
2018-07-29T22:35:23.192Z,7.23
2018-07-29T22:37:50.469Z,7.80
2018-07-29T22:40:19.117Z,8.30
2018-07-29T22:42:47.707Z,7.70
2018-07-29T22:45:16.295Z,7.00
2018-07-29T22:47:44.857Z,8.07
2018-07-29T22:50:13.366Z,7.90
2018-07-29T22:52:41.880Z,7.37
2018-07-29T22:55:10.427Z,8.13
2018-07-29T22:57:39.092Z,9.50
2018-07-29T23:00:10.886Z,8.13
2018-07-29T23:02:39.410Z,7.60
2018-07-29T23:05:07.980Z,7.53
2018-07-29T23:07:36.451Z,8.53
2018-07-29T23:10:09.083Z,7.03
2018-07-29T23:12:38.580Z,9.57
2018-07-29T23:15:08.568Z,7.63
2018-07-29T23:17:37.201Z,7.80
2018-07-29T23:20:09.007Z,7.03
2018-07-29T23:22:37.625Z,7.70
2018-07-29T23:25:06.511Z,11.33
2018-07-29T23:27:35.024Z,8.30
2018-07-29T23:30:03.544Z,7.83
2018-07-29T23:32:31.972Z,8.70
2018-07-29T23:35:00.520Z,11.83
2018-07-29T23:37:29.115Z,8.93
2018-07-29T23:39:57.675Z,8.70
2018-07-29T23:42:26.238Z,11.37
2018-07-29T23:44:55.862Z,10.33
2018-07-29T23:47:24.488Z,7.90
2018-07-29T23:49:53.029Z,8.57
2018-07-29T23:52:21.513Z,8.37
2018-07-29T23:54:50.304Z,7.33
2018-07-29T23:57:18.901Z,9.33
2018-07-29T23:59:48.611Z,9.70
